sensor_id;sensor_type;location;lat;lon;timestamp;P1;durP1;ratioP1;P2;durP2;ratioP2
2602;SDS011;1311;47.966;7.958;2023-12-20T00:00:21;0.40;;;0.30;;
2602;SDS011;1311;47.966;7.958;2023-12-20T00:02:48;0.60;;;0.50;;
2602;SDS011;1311;47.966;7.958;2023-12-20T00:05:15;0.40;;;0.30;;
2602;SDS011;1311;47.966;7.958;2023-12-20T00:07:41;0.37;;;0.37;;
2602;SDS011;1311;47.966;7.958;2023-12-20T00:10:08;0.40;;;0.40;;
2602;SDS011;1311;47.966;7.958;2023-12-20T00:12:39;0.40;;;0.30;;
2602;SDS011;1311;47.966;7.958;2023-12-20T00:15:06;0.50;;;0.50;;
2602;SDS011;1311;47.966;7.958;2023-12-20T00:17:33;0.40;;;0.37;;
2602;SDS011;1311;47.966;7.958;2023-12-20T00:20:00;0.40;;;0.40;;
2602;SDS011;1311;47.966;7.958;2023-12-20T00:22:27;0.57;;;0.37;;
2602;SDS011;1311;47.966;7.958;2023-12-20T00:24:53;0.30;;;0.30;;
2602;SDS011;1311;47.966;7.958;2023-12-20T00:27:20;1.23;;;0.40;;
2602;SDS011;1311;47.966;7.958;2023-12-20T00:29:48;1.13;;;0.40;;
2602;SDS011;1311;47.966;7.958;2023-12-20T00:32:15;0.50;;;0.40;;
2602;SDS011;1311;47.966;7.958;2023-12-20T00:34:42;0.80;;;0.50;;
2602;SDS011;1311;47.966;7.958;2023-12-20T00:37:09;0.40;;;0.40;;
2602;SDS011;1311;47.966;7.958;2023-12-20T00:39:36;0.50;;;0.40;;
2602;SDS011;1311;47.966;7.958;2023-12-20T00:42:02;0.40;;;0.40;;
2602;SDS011;1311;47.966;7.958;2023-12-20T00:44:29;0.40;;;0.40;;
2602;SDS011;1311;47.966;7.958;2023-12-20T00:46:57;0.70;;;0.50;;
2602;SDS011;1311;47.966;7.958;2023-12-20T00:49:24;0.40;;;0.30;;
2602;SDS011;1311;47.966;7.958;2023-12-20T00:51:51;0.40;;;0.30;;
2602;SDS011;1311;47.966;7.958;2023-12-20T00:54:18;0.50;;;0.40;;
2602;SDS011;1311;47.966;7.958;2023-12-20T00:56:44;0.50;;;0.40;;
2602;SDS011;1311;47.966;7.958;2023-12-20T00:59:11;0.40;;;0.30;;
2602;SDS011;1311;47.966;7.958;2023-12-20T01:01:38;0.53;;;0.40;;
2602;SDS011;1311;47.966;7.958;2023-12-20T01:04:06;0.30;;;0.30;;
2602;SDS011;1311;47.966;7.958;2023-12-20T01:06:32;0.40;;;0.33;;
2602;SDS011;1311;47.966;7.958;2023-12-20T01:08:59;0.50;;;0.40;;
2602;SDS011;1311;47.966;7.958;2023-12-20T01:11:26;0.30;;;0.30;;
2602;SDS011;1311;47.966;7.958;2023-12-20T01:13:52;0.40;;;0.30;;
2602;SDS011;1311;47.966;7.958;2023-12-20T01:16:20;0.30;;;0.30;;
2602;SDS011;1311;47.966;7.958;2023-12-20T01:18:46;0.50;;;0.40;;
2602;SDS011;1311;47.966;7.958;2023-12-20T01:21:15;0.40;;;0.30;;
2602;SDS011;1311;47.966;7.958;2023-12-20T01:23:42;0.40;;;0.30;;
2602;SDS011;1311;47.966;7.958;2023-12-20T01:26:09;0.40;;;0.30;;
2602;SDS011;1311;47.966;7.958;2023-12-20T01:28:35;0.30;;;0.30;;
2602;SDS011;1311;47.966;7.958;2023-12-20T01:31:02;0.40;;;0.40;;
2602;SDS011;1311;47.966;7.958;2023-12-20T01:33:29;0.40;;;0.37;;
2602;SDS011;1311;47.966;7.958;2023-12-20T01:35:56;0.40;;;0.30;;
2602;SDS011;1311;47.966;7.958;2023-12-20T01:38:24;0.40;;;0.30;;
2602;SDS011;1311;47.966;7.958;2023-12-20T01:40:50;0.37;;;0.33;;
2602;SDS011;1311;47.966;7.958;2023-12-20T01:43:17;0.30;;;0.20;;
2602;SDS011;1311;47.966;7.958;2023-12-20T01:45:44;0.30;;;0.30;;
2602;SDS011;1311;47.966;7.958;2023-12-20T01:48:11;0.50;;;0.40;;
2602;SDS011;1311;47.966;7.958;2023-12-20T01:50:38;0.30;;;0.30;;
2602;SDS011;1311;47.966;7.958;2023-12-20T01:53:07;0.30;;;0.20;;
2602;SDS011;1311;47.966;7.958;2023-12-20T01:55:36;0.30;;;0.30;;
2602;SDS011;1311;47.966;7.958;2023-12-20T01:58:05;0.40;;;0.30;;
2602;SDS011;1311;47.966;7.958;2023-12-20T02:00:33;0.30;;;0.30;;
2602;SDS011;1311;47.966;7.958;2023-12-20T02:03:00;0.33;;;0.27;;
2602;SDS011;1311;47.966;7.958;2023-12-20T02:05:27;0.37;;;0.27;;
2602;SDS011;1311;47.966;7.958;2023-12-20T02:07:55;0.30;;;0.20;;
2602;SDS011;1311;47.966;7.958;2023-12-20T02:10:22;0.30;;;0.20;;
2602;SDS011;1311;47.966;7.958;2023-12-20T02:12:51;0.40;;;0.27;;
2602;SDS011;1311;47.966;7.958;2023-12-20T02:15:17;0.40;;;0.20;;
2602;SDS011;1311;47.966;7.958;2023-12-20T02:17:45;0.30;;;0.30;;
2602;SDS011;1311;47.966;7.958;2023-12-20T02:20:13;0.30;;;0.30;;
2602;SDS011;1311;47.966;7.958;2023-12-20T02:22:41;0.30;;;0.20;;
2602;SDS011;1311;47.966;7.958;2023-12-20T02:25:08;0.30;;;0.20;;
2602;SDS011;1311;47.966;7.958;2023-12-20T02:27:35;0.30;;;0.30;;
2602;SDS011;1311;47.966;7.958;2023-12-20T02:30:02;0.30;;;0.30;;
2602;SDS011;1311;47.966;7.958;2023-12-20T02:32:29;0.40;;;0.20;;
2602;SDS011;1311;47.966;7.958;2023-12-20T02:34:56;0.30;;;0.20;;
2602;SDS011;1311;47.966;7.958;2023-12-20T02:37:22;1.60;;;0.30;;
2602;SDS011;1311;47.966;7.958;2023-12-20T02:39:50;0.30;;;0.30;;
2602;SDS011;1311;47.966;7.958;2023-12-20T02:42:17;0.30;;;0.20;;
2602;SDS011;1311;47.966;7.958;2023-12-20T02:44:44;0.30;;;0.30;;
2602;SDS011;1311;47.966;7.958;2023-12-20T02:47:10;0.30;;;0.20;;
2602;SDS011;1311;47.966;7.958;2023-12-20T02:49:37;0.40;;;0.30;;
2602;SDS011;1311;47.966;7.958;2023-12-20T02:52:04;0.30;;;0.30;;
2602;SDS011;1311;47.966;7.958;2023-12-20T02:54:31;0.40;;;0.30;;
2602;SDS011;1311;47.966;7.958;2023-12-20T02:56:59;0.30;;;0.20;;
2602;SDS011;1311;47.966;7.958;2023-12-20T02:59:26;0.30;;;0.20;;
2602;SDS011;1311;47.966;7.958;2023-12-20T03:01:53;0.30;;;0.30;;
2602;SDS011;1311;47.966;7.958;2023-12-20T03:04:19;0.30;;;0.20;;
2602;SDS011;1311;47.966;7.958;2023-12-20T03:06:46;0.30;;;0.20;;
2602;SDS011;1311;47.966;7.958;2023-12-20T03:09:13;0.30;;;0.30;;
2602;SDS011;1311;47.966;7.958;2023-12-20T03:11:39;0.30;;;0.30;;
2602;SDS011;1311;47.966;7.958;2023-12-20T03:14:07;0.30;;;0.20;;
2602;SDS011;1311;47.966;7.958;2023-12-20T03:16:34;0.30;;;0.23;;
2602;SDS011;1311;47.966;7.958;2023-12-20T03:19:01;0.30;;;0.30;;
2602;SDS011;1311;47.966;7.958;2023-12-20T03:21:27;0.30;;;0.20;;
2602;SDS011;1311;47.966;7.958;2023-12-20T03:23:54;0.30;;;0.20;;
2602;SDS011;1311;47.966;7.958;2023-12-20T03:26:21;0.30;;;0.30;;
2602;SDS011;1311;47.966;7.958;2023-12-20T03:28:48;0.30;;;0.20;;
2602;SDS011;1311;47.966;7.958;2023-12-20T03:31:16;0.30;;;0.20;;
2602;SDS011;1311;47.966;7.958;2023-12-20T03:33:43;0.30;;;0.30;;
2602;SDS011;1311;47.966;7.958;2023-12-20T03:36:09;0.50;;;0.40;;
2602;SDS011;1311;47.966;7.958;2023-12-20T03:38:36;0.30;;;0.30;;
2602;SDS011;1311;47.966;7.958;2023-12-20T03:41:03;0.40;;;0.30;;
2602;SDS011;1311;47.966;7.958;2023-12-20T03:43:30;0.50;;;0.30;;
2602;SDS011;1311;47.966;7.958;2023-12-20T03:45:57;0.30;;;0.30;;
2602;SDS011;1311;47.966;7.958;2023-12-20T03:48:25;0.40;;;0.30;;
2602;SDS011;1311;47.966;7.958;2023-12-20T03:50:51;0.30;;;0.20;;
2602;SDS011;1311;47.966;7.958;2023-12-20T03:53:18;0.30;;;0.30;;
2602;SDS011;1311;47.966;7.958;2023-12-20T03:55:45;0.30;;;0.30;;
2602;SDS011;1311;47.966;7.958;2023-12-20T03:58:12;0.87;;;0.33;;
2602;SDS011;1311;47.966;7.958;2023-12-20T04:00:38;0.30;;;0.30;;
2602;SDS011;1311;47.966;7.958;2023-12-20T04:03:05;0.60;;;0.37;;
2602;SDS011;1311;47.966;7.958;2023-12-20T04:05:34;0.40;;;0.30;;
2602;SDS011;1311;47.966;7.958;2023-12-20T04:08:01;0.30;;;0.30;;
2602;SDS011;1311;47.966;7.958;2023-12-20T04:10:28;0.53;;;0.43;;
2602;SDS011;1311;47.966;7.958;2023-12-20T04:12:55;0.30;;;0.20;;
2602;SDS011;1311;47.966;7.958;2023-12-20T04:15:21;0.37;;;0.23;;
2602;SDS011;1311;47.966;7.958;2023-12-20T04:17:48;0.40;;;0.30;;
2602;SDS011;1311;47.966;7.958;2023-12-20T04:20:15;0.30;;;0.20;;
2602;SDS011;1311;47.966;7.958;2023-12-20T04:22:43;0.30;;;0.20;;
2602;SDS011;1311;47.966;7.958;2023-12-20T04:25:10;0.30;;;0.30;;
2602;SDS011;1311;47.966;7.958;2023-12-20T04:27:36;0.30;;;0.30;;
2602;SDS011;1311;47.966;7.958;2023-12-20T04:30:03;0.40;;;0.30;;
2602;SDS011;1311;47.966;7.958;2023-12-20T04:32:31;0.30;;;0.20;;
2602;SDS011;1311;47.966;7.958;2023-12-20T04:34:57;0.30;;;0.20;;
2602;SDS011;1311;47.966;7.958;2023-12-20T04:37:24;0.40;;;0.30;;
2602;SDS011;1311;47.966;7.958;2023-12-20T04:39:52;0.40;;;0.30;;
2602;SDS011;1311;47.966;7.958;2023-12-20T04:42:19;0.70;;;0.30;;
2602;SDS011;1311;47.966;7.958;2023-12-20T04:44:46;0.43;;;0.40;;
2602;SDS011;1311;47.966;7.958;2023-12-20T04:47:13;0.40;;;0.30;;
2602;SDS011;1311;47.966;7.958;2023-12-20T04:49:39;0.40;;;0.30;;
2602;SDS011;1311;47.966;7.958;2023-12-20T04:52:06;0.30;;;0.30;;
2602;SDS011;1311;47.966;7.958;2023-12-20T04:54:33;0.37;;;0.37;;
2602;SDS011;1311;47.966;7.958;2023-12-20T04:57:01;0.53;;;0.40;;
2602;SDS011;1311;47.966;7.958;2023-12-20T04:59:28;0.60;;;0.40;;
2602;SDS011;1311;47.966;7.958;2023-12-20T05:01:54;0.40;;;0.40;;
2602;SDS011;1311;47.966;7.958;2023-12-20T05:04:22;0.40;;;0.30;;
2602;SDS011;1311;47.966;7.958;2023-12-20T05:06:49;0.40;;;0.40;;
2602;SDS011;1311;47.966;7.958;2023-12-20T05:09:16;2.30;;;1.83;;
2602;SDS011;1311;47.966;7.958;2023-12-20T05:11:42;1.50;;;1.40;;
2602;SDS011;1311;47.966;7.958;2023-12-20T05:14:10;1.03;;;1.03;;
2602;SDS011;1311;47.966;7.958;2023-12-20T05:16:37;2.10;;;1.10;;
2602;SDS011;1311;47.966;7.958;2023-12-20T05:19:04;1.93;;;1.10;;
2602;SDS011;1311;47.966;7.958;2023-12-20T05:21:31;5.93;;;3.30;;
2602;SDS011;1311;47.966;7.958;2023-12-20T05:23:58;7.53;;;4.07;;
2602;SDS011;1311;47.966;7.958;2023-12-20T05:26:25;2.20;;;1.70;;
2602;SDS011;1311;47.966;7.958;2023-12-20T05:28:52;4.10;;;2.50;;
2602;SDS011;1311;47.966;7.958;2023-12-20T05:31:20;2.90;;;1.50;;
2602;SDS011;1311;47.966;7.958;2023-12-20T05:33:47;2.93;;;2.10;;
2602;SDS011;1311;47.966;7.958;2023-12-20T05:36:13;2.43;;;1.77;;
2602;SDS011;1311;47.966;7.958;2023-12-20T05:38:40;2.50;;;1.63;;
2602;SDS011;1311;47.966;7.958;2023-12-20T05:41:07;1.97;;;1.20;;
2602;SDS011;1311;47.966;7.958;2023-12-20T05:43:34;0.80;;;0.80;;
2602;SDS011;1311;47.966;7.958;2023-12-20T05:46:01;0.80;;;0.67;;
2602;SDS011;1311;47.966;7.958;2023-12-20T05:48:29;0.83;;;0.77;;
2602;SDS011;1311;47.966;7.958;2023-12-20T05:50:55;0.87;;;0.60;;
2602;SDS011;1311;47.966;7.958;2023-12-20T05:53:23;0.60;;;0.50;;
2602;SDS011;1311;47.966;7.958;2023-12-20T05:55:50;1.33;;;1.10;;
2602;SDS011;1311;47.966;7.958;2023-12-20T05:58:16;0.97;;;0.70;;
2602;SDS011;1311;47.966;7.958;2023-12-20T06:00:43;0.43;;;0.43;;
2602;SDS011;1311;47.966;7.958;2023-12-20T06:03:10;1.10;;;1.00;;
2602;SDS011;1311;47.966;7.958;2023-12-20T06:05:38;2.70;;;1.30;;
2602;SDS011;1311;47.966;7.958;2023-12-20T06:08:05;2.20;;;1.57;;
2602;SDS011;1311;47.966;7.958;2023-12-20T06:10:32;3.63;;;2.20;;
2602;SDS011;1311;47.966;7.958;2023-12-20T06:12:58;3.40;;;1.77;;
2602;SDS011;1311;47.966;7.958;2023-12-20T06:15:25;2.50;;;1.63;;
2602;SDS011;1311;47.966;7.958;2023-12-20T06:17:52;1.50;;;1.10;;
2602;SDS011;1311;47.966;7.958;2023-12-20T06:20:19;1.53;;;0.90;;
2602;SDS011;1311;47.966;7.958;2023-12-20T06:22:47;0.80;;;0.80;;
2602;SDS011;1311;47.966;7.958;2023-12-20T06:25:14;2.17;;;1.53;;
2602;SDS011;1311;47.966;7.958;2023-12-20T06:27:41;3.20;;;2.00;;
2602;SDS011;1311;47.966;7.958;2023-12-20T06:30:07;4.23;;;1.80;;
2602;SDS011;1311;47.966;7.958;2023-12-20T06:32:35;1.33;;;1.17;;
2602;SDS011;1311;47.966;7.958;2023-12-20T06:35:03;4.50;;;1.10;;
2602;SDS011;1311;47.966;7.958;2023-12-20T06:37:31;0.87;;;0.87;;
2602;SDS011;1311;47.966;7.958;2023-12-20T06:39:59;0.60;;;0.60;;
2602;SDS011;1311;47.966;7.958;2023-12-20T06:42:25;3.60;;;1.50;;
2602;SDS011;1311;47.966;7.958;2023-12-20T06:44:52;3.10;;;1.70;;
2602;SDS011;1311;47.966;7.958;2023-12-20T06:47:19;1.37;;;1.03;;
2602;SDS011;1311;47.966;7.958;2023-12-20T06:49:46;1.23;;;1.07;;
2602;SDS011;1311;47.966;7.958;2023-12-20T06:52:13;0.80;;;0.80;;
2602;SDS011;1311;47.966;7.958;2023-12-20T06:54:39;4.20;;;2.13;;
2602;SDS011;1311;47.966;7.958;2023-12-20T06:57:07;2.70;;;2.03;;
2602;SDS011;1311;47.966;7.958;2023-12-20T06:59:37;9.57;;;2.90;;
2602;SDS011;1311;47.966;7.958;2023-12-20T07:02:05;6.73;;;2.77;;
2602;SDS011;1311;47.966;7.958;2023-12-20T07:04:31;3.20;;;1.83;;
2602;SDS011;1311;47.966;7.958;2023-12-20T07:06:58;1.80;;;1.13;;
2602;SDS011;1311;47.966;7.958;2023-12-20T07:09:25;1.60;;;1.50;;
2602;SDS011;1311;47.966;7.958;2023-12-20T07:11:52;1.13;;;1.03;;
2602;SDS011;1311;47.966;7.958;2023-12-20T07:14:20;0.97;;;0.80;;
2602;SDS011;1311;47.966;7.958;2023-12-20T07:16:47;0.83;;;0.83;;
2602;SDS011;1311;47.966;7.958;2023-12-20T07:19:14;0.43;;;0.43;;
2602;SDS011;1311;47.966;7.958;2023-12-20T07:21:41;0.90;;;0.80;;
2602;SDS011;1311;47.966;7.958;2023-12-20T07:24:07;0.60;;;0.60;;
2602;SDS011;1311;47.966;7.958;2023-12-20T07:26:34;0.60;;;0.60;;
2602;SDS011;1311;47.966;7.958;2023-12-20T07:29:02;1.10;;;1.00;;
2602;SDS011;1311;47.966;7.958;2023-12-20T07:31:30;1.37;;;1.10;;
2602;SDS011;1311;47.966;7.958;2023-12-20T07:33:57;1.20;;;0.70;;
2602;SDS011;1311;47.966;7.958;2023-12-20T07:36:24;1.17;;;1.07;;
2602;SDS011;1311;47.966;7.958;2023-12-20T07:38:51;1.37;;;1.10;;
2602;SDS011;1311;47.966;7.958;2023-12-20T07:41:17;1.70;;;0.83;;
2602;SDS011;1311;47.966;7.958;2023-12-20T07:43:46;2.30;;;1.20;;
2602;SDS011;1311;47.966;7.958;2023-12-20T07:46:12;5.13;;;2.43;;
2602;SDS011;1311;47.966;7.958;2023-12-20T07:48:40;5.20;;;2.67;;
2602;SDS011;1311;47.966;7.958;2023-12-20T07:51:07;5.60;;;2.70;;
2602;SDS011;1311;47.966;7.958;2023-12-20T07:53:34;5.97;;;2.60;;
2602;SDS011;1311;47.966;7.958;2023-12-20T07:56:02;8.13;;;3.00;;
2602;SDS011;1311;47.966;7.958;2023-12-20T07:58:39;5.00;;;2.50;;
2602;SDS011;1311;47.966;7.958;2023-12-20T08:01:05;18.73;;;6.90;;
2602;SDS011;1311;47.966;7.958;2023-12-20T08:03:32;21.47;;;9.23;;
2602;SDS011;1311;47.966;7.958;2023-12-20T08:06:00;21.47;;;8.37;;
2602;SDS011;1311;47.966;7.958;2023-12-20T08:08:28;10.33;;;3.90;;
2602;SDS011;1311;47.966;7.958;2023-12-20T08:10:54;4.20;;;2.73;;
2602;SDS011;1311;47.966;7.958;2023-12-20T08:13:22;2.43;;;1.73;;
2602;SDS011;1311;47.966;7.958;2023-12-20T08:15:51;2.40;;;2.00;;
2602;SDS011;1311;47.966;7.958;2023-12-20T08:18:18;2.43;;;1.90;;
2602;SDS011;1311;47.966;7.958;2023-12-20T08:20:45;1.37;;;1.23;;
2602;SDS011;1311;47.966;7.958;2023-12-20T08:23:13;1.70;;;1.00;;
2602;SDS011;1311;47.966;7.958;2023-12-20T08:25:41;1.10;;;1.10;;
2602;SDS011;1311;47.966;7.958;2023-12-20T08:28:08;1.87;;;1.30;;
2602;SDS011;1311;47.966;7.958;2023-12-20T08:30:35;1.93;;;1.50;;
2602;SDS011;1311;47.966;7.958;2023-12-20T08:33:01;1.17;;;1.10;;
2602;SDS011;1311;47.966;7.958;2023-12-20T08:35:28;1.50;;;1.10;;
2602;SDS011;1311;47.966;7.958;2023-12-20T08:37:55;1.30;;;1.20;;
2602;SDS011;1311;47.966;7.958;2023-12-20T08:40:23;1.10;;;0.80;;
2602;SDS011;1311;47.966;7.958;2023-12-20T08:42:50;4.50;;;1.50;;
2602;SDS011;1311;47.966;7.958;2023-12-20T08:45:16;1.80;;;1.23;;
2602;SDS011;1311;47.966;7.958;2023-12-20T08:47:43;1.73;;;1.20;;
2602;SDS011;1311;47.966;7.958;2023-12-20T08:50:10;1.63;;;1.30;;
2602;SDS011;1311;47.966;7.958;2023-12-20T08:52:37;1.40;;;1.30;;
2602;SDS011;1311;47.966;7.958;2023-12-20T08:55:04;1.50;;;1.20;;
2602;SDS011;1311;47.966;7.958;2023-12-20T08:57:33;0.93;;;0.93;;
2602;SDS011;1311;47.966;7.958;2023-12-20T09:00:00;1.00;;;0.90;;
2602;SDS011;1311;47.966;7.958;2023-12-20T09:02:26;0.90;;;0.90;;
2602;SDS011;1311;47.966;7.958;2023-12-20T09:04:54;1.40;;;1.30;;
2602;SDS011;1311;47.966;7.958;2023-12-20T09:07:21;1.20;;;1.10;;
2602;SDS011;1311;47.966;7.958;2023-12-20T09:09:48;1.43;;;1.27;;
2602;SDS011;1311;47.966;7.958;2023-12-20T09:12:15;1.10;;;1.00;;
2602;SDS011;1311;47.966;7.958;2023-12-20T09:14:44;1.00;;;0.90;;
2602;SDS011;1311;47.966;7.958;2023-12-20T09:17:11;1.20;;;1.10;;
2602;SDS011;1311;47.966;7.958;2023-12-20T09:19:38;1.57;;;1.17;;
2602;SDS011;1311;47.966;7.958;2023-12-20T09:22:06;1.50;;;1.20;;
2602;SDS011;1311;47.966;7.958;2023-12-20T09:24:33;1.50;;;1.40;;
2602;SDS011;1311;47.966;7.958;2023-12-20T09:26:59;1.53;;;1.27;;
2602;SDS011;1311;47.966;7.958;2023-12-20T09:29:26;1.77;;;1.60;;
2602;SDS011;1311;47.966;7.958;2023-12-20T09:31:54;1.40;;;1.30;;
2602;SDS011;1311;47.966;7.958;2023-12-20T09:34:22;1.43;;;1.20;;
2602;SDS011;1311;47.966;7.958;2023-12-20T09:36:49;2.73;;;1.50;;
2602;SDS011;1311;47.966;7.958;2023-12-20T09:39:16;1.70;;;1.60;;
2602;SDS011;1311;47.966;7.958;2023-12-20T09:41:45;1.97;;;1.70;;
2602;SDS011;1311;47.966;7.958;2023-12-20T09:44:18;3.27;;;1.60;;
2602;SDS011;1311;47.966;7.958;2023-12-20T09:46:45;1.87;;;1.77;;
2602;SDS011;1311;47.966;7.958;2023-12-20T09:49:15;2.17;;;1.97;;
2602;SDS011;1311;47.966;7.958;2023-12-20T09:51:43;2.80;;;2.07;;
2602;SDS011;1311;47.966;7.958;2023-12-20T09:54:12;1.80;;;1.60;;
2602;SDS011;1311;47.966;7.958;2023-12-20T09:56:40;1.63;;;1.50;;
2602;SDS011;1311;47.966;7.958;2023-12-20T09:59:07;1.50;;;1.40;;
2602;SDS011;1311;47.966;7.958;2023-12-20T10:01:34;2.03;;;1.83;;
2602;SDS011;1311;47.966;7.958;2023-12-20T10:04:02;1.80;;;1.70;;
2602;SDS011;1311;47.966;7.958;2023-12-20T10:06:33;2.37;;;1.60;;
2602;SDS011;1311;47.966;7.958;2023-12-20T10:09:00;2.00;;;1.87;;
2602;SDS011;1311;47.966;7.958;2023-12-20T10:11:27;2.33;;;2.13;;
2602;SDS011;1311;47.966;7.958;2023-12-20T10:13:58;2.57;;;2.13;;
2602;SDS011;1311;47.966;7.958;2023-12-20T10:16:26;2.20;;;1.97;;
2602;SDS011;1311;47.966;7.958;2023-12-20T10:18:53;3.17;;;2.30;;
2602;SDS011;1311;47.966;7.958;2023-12-20T10:21:20;3.30;;;2.43;;
2602;SDS011;1311;47.966;7.958;2023-12-20T10:23:49;2.10;;;1.90;;
2602;SDS011;1311;47.966;7.958;2023-12-20T10:26:19;3.20;;;2.40;;
2602;SDS011;1311;47.966;7.958;2023-12-20T10:28:46;3.00;;;2.40;;
2602;SDS011;1311;47.966;7.958;2023-12-20T10:31:25;2.70;;;2.17;;
2602;SDS011;1311;47.966;7.958;2023-12-20T10:33:53;3.07;;;2.20;;
2602;SDS011;1311;47.966;7.958;2023-12-20T10:36:22;3.60;;;2.47;;
2602;SDS011;1311;47.966;7.958;2023-12-20T10:38:54;2.90;;;1.80;;
2602;SDS011;1311;47.966;7.958;2023-12-20T10:41:24;2.57;;;2.10;;
2602;SDS011;1311;47.966;7.958;2023-12-20T10:43:53;2.20;;;1.67;;
2602;SDS011;1311;47.966;7.958;2023-12-20T10:46:24;2.57;;;1.70;;
2602;SDS011;1311;47.966;7.958;2023-12-20T10:48:53;2.40;;;1.70;;
2602;SDS011;1311;47.966;7.958;2023-12-20T10:51:21;2.63;;;1.57;;
2602;SDS011;1311;47.966;7.958;2023-12-20T10:53:49;3.33;;;1.63;;
2602;SDS011;1311;47.966;7.958;2023-12-20T10:56:18;3.17;;;1.90;;
2602;SDS011;1311;47.966;7.958;2023-12-20T10:58:46;2.63;;;2.10;;
2602;SDS011;1311;47.966;7.958;2023-12-20T11:01:13;4.30;;;3.03;;
2602;SDS011;1311;47.966;7.958;2023-12-20T11:03:42;3.37;;;2.70;;
2602;SDS011;1311;47.966;7.958;2023-12-20T11:06:17;3.20;;;2.47;;
2602;SDS011;1311;47.966;7.958;2023-12-20T11:08:55;3.13;;;2.83;;
2602;SDS011;1311;47.966;7.958;2023-12-20T11:11:37;4.67;;;2.80;;
2602;SDS011;1311;47.966;7.958;2023-12-20T11:14:13;3.20;;;2.07;;
2602;SDS011;1311;47.966;7.958;2023-12-20T11:16:45;4.63;;;2.30;;
2602;SDS011;1311;47.966;7.958;2023-12-20T11:19:12;2.77;;;2.50;;
2602;SDS011;1311;47.966;7.958;2023-12-20T11:21:39;2.17;;;2.07;;
2602;SDS011;1311;47.966;7.958;2023-12-20T11:24:07;5.10;;;2.60;;
2602;SDS011;1311;47.966;7.958;2023-12-20T11:26:33;3.70;;;2.20;;
2602;SDS011;1311;47.966;7.958;2023-12-20T11:32:00;2.53;;;1.80;;
2602;SDS011;1311;47.966;7.958;2023-12-20T11:34:28;2.80;;;1.90;;
2602;SDS011;1311;47.966;7.958;2023-12-20T11:36:58;2.13;;;1.87;;
2602;SDS011;1311;47.966;7.958;2023-12-20T11:39:26;4.20;;;1.93;;
2602;SDS011;1311;47.966;7.958;2023-12-20T11:41:55;2.13;;;2.00;;
2602;SDS011;1311;47.966;7.958;2023-12-20T11:44:24;3.30;;;1.80;;
2602;SDS011;1311;47.966;7.958;2023-12-20T11:46:51;2.33;;;1.87;;
2602;SDS011;1311;47.966;7.958;2023-12-20T11:49:22;3.03;;;1.90;;
2602;SDS011;1311;47.966;7.958;2023-12-20T11:51:49;3.37;;;1.50;;
2602;SDS011;1311;47.966;7.958;2023-12-20T11:54:16;3.27;;;2.17;;
2602;SDS011;1311;47.966;7.958;2023-12-20T11:56:43;3.17;;;1.70;;
2602;SDS011;1311;47.966;7.958;2023-12-20T11:59:11;3.20;;;1.70;;
2602;SDS011;1311;47.966;7.958;2023-12-20T12:01:38;2.10;;;1.73;;
2602;SDS011;1311;47.966;7.958;2023-12-20T12:04:05;2.40;;;1.40;;
2602;SDS011;1311;47.966;7.958;2023-12-20T12:06:32;2.93;;;1.90;;
2602;SDS011;1311;47.966;7.958;2023-12-20T12:08:59;4.73;;;1.80;;
2602;SDS011;1311;47.966;7.958;2023-12-20T12:11:26;4.30;;;2.03;;
2602;SDS011;1311;47.966;7.958;2023-12-20T12:13:53;3.17;;;1.57;;
2602;SDS011;1311;47.966;7.958;2023-12-20T12:16:21;2.23;;;1.87;;
2602;SDS011;1311;47.966;7.958;2023-12-20T12:18:54;3.67;;;2.30;;
2602;SDS011;1311;47.966;7.958;2023-12-20T12:21:22;2.70;;;1.40;;
2602;SDS011;1311;47.966;7.958;2023-12-20T12:23:49;3.37;;;2.07;;
2602;SDS011;1311;47.966;7.958;2023-12-20T12:26:15;5.33;;;2.40;;
2602;SDS011;1311;47.966;7.958;2023-12-20T12:28:42;4.83;;;2.40;;
2602;SDS011;1311;47.966;7.958;2023-12-20T12:31:12;5.40;;;2.00;;
2602;SDS011;1311;47.966;7.958;2023-12-20T12:33:42;3.80;;;1.80;;
2602;SDS011;1311;47.966;7.958;2023-12-20T12:36:09;2.50;;;1.30;;
2602;SDS011;1311;47.966;7.958;2023-12-20T12:38:37;2.93;;;1.83;;
2602;SDS011;1311;47.966;7.958;2023-12-20T12:41:04;2.27;;;1.70;;
2602;SDS011;1311;47.966;7.958;2023-12-20T12:43:32;4.17;;;1.97;;
2602;SDS011;1311;47.966;7.958;2023-12-20T12:45:58;5.87;;;1.90;;
2602;SDS011;1311;47.966;7.958;2023-12-20T12:48:25;3.07;;;1.30;;
2602;SDS011;1311;47.966;7.958;2023-12-20T12:50:54;1.83;;;1.47;;
2602;SDS011;1311;47.966;7.958;2023-12-20T12:53:24;3.70;;;1.53;;
2602;SDS011;1311;47.966;7.958;2023-12-20T12:55:51;3.20;;;1.80;;
2602;SDS011;1311;47.966;7.958;2023-12-20T12:58:18;4.03;;;1.50;;
2602;SDS011;1311;47.966;7.958;2023-12-20T13:00:45;6.10;;;1.73;;
2602;SDS011;1311;47.966;7.958;2023-12-20T13:03:12;1.97;;;1.00;;
2602;SDS011;1311;47.966;7.958;2023-12-20T13:05:38;1.63;;;1.20;;
2602;SDS011;1311;47.966;7.958;2023-12-20T13:08:07;1.57;;;1.10;;
2602;SDS011;1311;47.966;7.958;2023-12-20T13:10:34;5.20;;;1.30;;
2602;SDS011;1311;47.966;7.958;2023-12-20T13:13:01;3.57;;;1.20;;
2602;SDS011;1311;47.966;7.958;2023-12-20T13:15:29;2.10;;;1.07;;
2602;SDS011;1311;47.966;7.958;2023-12-20T13:17:56;3.93;;;1.13;;
2602;SDS011;1311;47.966;7.958;2023-12-20T13:20:23;2.93;;;1.30;;
2602;SDS011;1311;47.966;7.958;2023-12-20T13:22:50;2.20;;;1.00;;
2602;SDS011;1311;47.966;7.958;2023-12-20T13:25:18;1.47;;;0.80;;
2602;SDS011;1311;47.966;7.958;2023-12-20T13:27:45;2.90;;;1.10;;
2602;SDS011;1311;47.966;7.958;2023-12-20T13:30:12;3.43;;;1.03;;
2602;SDS011;1311;47.966;7.958;2023-12-20T13:32:39;5.50;;;1.27;;
2602;SDS011;1311;47.966;7.958;2023-12-20T13:35:06;3.57;;;1.50;;
2602;SDS011;1311;47.966;7.958;2023-12-20T13:37:33;3.63;;;1.40;;
2602;SDS011;1311;47.966;7.958;2023-12-20T13:40:00;8.07;;;2.00;;
2602;SDS011;1311;47.966;7.958;2023-12-20T13:42:29;7.83;;;3.90;;
2602;SDS011;1311;47.966;7.958;2023-12-20T13:44:56;5.20;;;2.80;;
2602;SDS011;1311;47.966;7.958;2023-12-20T13:47:23;6.03;;;3.33;;
2602;SDS011;1311;47.966;7.958;2023-12-20T13:49:49;24.00;;;11.30;;
2602;SDS011;1311;47.966;7.958;2023-12-20T13:52:16;8.20;;;3.77;;
2602;SDS011;1311;47.966;7.958;2023-12-20T13:54:43;2.70;;;1.53;;
2602;SDS011;1311;47.966;7.958;2023-12-20T13:57:10;4.33;;;2.27;;
2602;SDS011;1311;47.966;7.958;2023-12-20T13:59:38;8.20;;;4.57;;
2602;SDS011;1311;47.966;7.958;2023-12-20T14:02:05;5.50;;;1.80;;
2602;SDS011;1311;47.966;7.958;2023-12-20T14:04:31;1.80;;;1.10;;
2602;SDS011;1311;47.966;7.958;2023-12-20T14:06:58;1.87;;;1.30;;
2602;SDS011;1311;47.966;7.958;2023-12-20T14:09:25;4.57;;;1.10;;
2602;SDS011;1311;47.966;7.958;2023-12-20T14:11:52;4.97;;;1.17;;
2602;SDS011;1311;47.966;7.958;2023-12-20T14:14:20;4.80;;;1.63;;
2602;SDS011;1311;47.966;7.958;2023-12-20T14:16:48;3.80;;;1.30;;
2602;SDS011;1311;47.966;7.958;2023-12-20T14:19:14;2.80;;;1.10;;
2602;SDS011;1311;47.966;7.958;2023-12-20T14:21:42;3.90;;;1.20;;
2602;SDS011;1311;47.966;7.958;2023-12-20T14:24:10;3.67;;;1.00;;
2602;SDS011;1311;47.966;7.958;2023-12-20T14:26:39;4.47;;;1.77;;
2602;SDS011;1311;47.966;7.958;2023-12-20T14:29:06;5.50;;;2.37;;
2602;SDS011;1311;47.966;7.958;2023-12-20T14:31:34;2.03;;;1.17;;
2602;SDS011;1311;47.966;7.958;2023-12-20T14:34:03;2.67;;;2.37;;
2602;SDS011;1311;47.966;7.958;2023-12-20T14:36:30;3.70;;;2.00;;
2602;SDS011;1311;47.966;7.958;2023-12-20T14:38:57;4.20;;;2.53;;
2602;SDS011;1311;47.966;7.958;2023-12-20T14:41:24;2.33;;;1.83;;
2602;SDS011;1311;47.966;7.958;2023-12-20T14:43:51;2.87;;;1.90;;
2602;SDS011;1311;47.966;7.958;2023-12-20T14:46:18;3.80;;;1.70;;
2602;SDS011;1311;47.966;7.958;2023-12-20T14:48:45;3.27;;;1.33;;
2602;SDS011;1311;47.966;7.958;2023-12-20T14:51:14;5.57;;;1.50;;
2602;SDS011;1311;47.966;7.958;2023-12-20T14:53:41;1.40;;;1.20;;
2602;SDS011;1311;47.966;7.958;2023-12-20T14:56:08;4.27;;;1.57;;
2602;SDS011;1311;47.966;7.958;2023-12-20T14:58:35;5.63;;;1.40;;
2602;SDS011;1311;47.966;7.958;2023-12-20T15:01:02;2.30;;;0.90;;
2602;SDS011;1311;47.966;7.958;2023-12-20T15:03:29;1.00;;;0.93;;
2602;SDS011;1311;47.966;7.958;2023-12-20T15:05:55;4.70;;;1.47;;
2602;SDS011;1311;47.966;7.958;2023-12-20T15:08:25;3.37;;;1.50;;
2602;SDS011;1311;47.966;7.958;2023-12-20T15:10:51;7.63;;;1.33;;
2602;SDS011;1311;47.966;7.958;2023-12-20T15:13:18;5.50;;;2.17;;
2602;SDS011;1311;47.966;7.958;2023-12-20T15:15:45;4.23;;;1.50;;
2602;SDS011;1311;47.966;7.958;2023-12-20T15:18:12;6.80;;;1.73;;